Time;durP1;ratioP1;P1;durP2;ratioP2;P2;SDS_P1;SDS_P2;PMS_P1;PMS_P2;Temp;Humidity;BMP_temperature;BMP_pressure;BME280_temperature;BME280_humidity;BME280_pressure;Samples;Min_cycle;Max_cycle;Signal;HPM_P1;HPM_P2
2023/07/04 00:01:46;;;;;;;6.85;1.65;;;15.60;99.90;;;;;;6244831;22;20054;-74
2023/07/04 00:04:15;;;;;;;3.75;1.95;;;15.70;99.90;;;;;;6271601;22;20512;-74
2023/07/04 00:06:41;;;;;;;4.22;1.40;;;15.70;99.90;;;;;;6271922;22;20004;-74
2023/07/04 00:09:09;;;;;;;9.35;2.28;;;15.60;99.90;;;;;;6271322;22;20421;-74
2023/07/04 00:11:35;;;;;;;6.68;1.83;;;15.60;99.90;;;;;;6273648;22;20066;-74
2023/07/04 00:14:01;;;;;;;4.57;1.80;;;15.70;99.90;;;;;;6272439;22;20034;-74
2023/07/04 00:16:27;;;;;;;7.75;2.58;;;15.70;99.90;;;;;;6273324;22;19996;-74
2023/07/04 00:18:53;;;;;;;7.07;1.75;;;15.70;99.90;;;;;;6273544;22;20010;-74
2023/07/04 00:21:19;;;;;;;9.55;1.73;;;15.70;99.90;;;;;;6273622;22;20103;-74
2023/07/04 00:23:47;;;;;;;5.57;2.17;;;15.70;99.90;;;;;;6273713;22;20033;-74
2023/07/04 00:26:17;;;;;;;4.85;1.65;;;15.70;99.90;;;;;;6273259;22;20008;-74
2023/07/04 00:28:43;;;;;;;7.03;2.03;;;15.70;99.90;;;;;;6274130;22;20083;-74
2023/07/04 00:31:14;;;;;;;4.97;1.50;;;15.60;99.90;;;;;;6274162;22;20008;-74
2023/07/04 00:33:40;;;;;;;7.32;1.58;;;15.60;99.90;;;;;;6246903;22;20012;-75
2023/07/04 00:36:12;;;;;;;5.72;1.80;;;15.60;99.90;;;;;;6273129;22;20014;-75
2023/07/04 00:38:40;;;;;;;5.40;1.92;;;15.60;99.90;;;;;;6272344;22;20053;-74
2023/07/04 00:41:16;;;;;;;5.10;1.85;;;15.60;99.90;;;;;;6273198;22;20006;-74
2023/07/04 00:44:00;;;;;;;3.90;1.50;;;15.60;99.90;;;;;;6273080;22;20007;-74
2023/07/04 00:46:52;;;;;;;6.25;1.65;;;15.60;99.90;;;;;;6273409;22;20301;-74
2023/07/04 00:49:23;;;;;;;4.30;1.80;;;15.50;99.90;;;;;;6272987;22;20011;-74
2023/07/04 00:51:57;;;;;;;6.55;1.85;;;15.50;99.90;;;;;;6273516;22;20370;-74
2023/07/04 00:54:24;;;;;;;5.70;1.42;;;15.50;99.90;;;;;;6273200;22;20048;-75
2023/07/04 00:56:56;;;;;;;5.65;1.48;;;15.50;99.90;;;;;;6272695;22;20441;-75
2023/07/04 00:59:23;;;;;;;7.60;2.15;;;15.50;99.90;;;;;;6273260;22;20444;-74
2023/07/04 01:01:48;;;;;;;5.15;2.05;;;15.50;99.90;;;;;;6273255;22;20044;-75
2023/07/04 01:04:14;;;;;;;4.88;1.83;;;15.50;99.90;;;;;;6272799;22;20015;-74
2023/07/04 01:06:52;;;;;;;6.15;1.83;;;15.50;99.90;;;;;;6246138;22;20003;-75
2023/07/04 01:09:20;;;;;;;10.02;2.40;;;15.50;99.90;;;;;;6272638;22;20376;-74
2023/07/04 01:11:49;;;;;;;4.88;1.88;;;15.50;99.90;;;;;;6272714;22;19995;-74
2023/07/04 01:14:24;;;;;;;9.88;2.75;;;15.40;99.90;;;;;;6272674;22;20087;-74
2023/07/04 01:16:50;;;;;;;13.57;2.25;;;15.50;99.90;;;;;;6273292;22;19996;-75
2023/07/04 01:19:39;;;;;;;6.97;2.30;;;15.40;99.90;;;;;;6273098;22;20038;-75
2023/07/04 01:22:10;;;;;;;8.88;2.30;;;15.40;99.90;;;;;;6271191;22;19999;-75
2023/07/04 01:24:49;;;;;;;12.25;3.03;;;15.30;99.90;;;;;;6272678;22;20008;-74
2023/07/04 01:27:16;;;;;;;10.18;2.70;;;15.40;99.90;;;;;;6271544;22;20003;-74
2023/07/04 01:29:43;;;;;;;7.28;2.65;;;15.40;99.90;;;;;;6272678;22;20259;-75
2023/07/04 01:32:09;;;;;;;10.02;2.83;;;15.40;99.90;;;;;;6272513;22;20058;-74
2023/07/04 01:34:35;;;;;;;13.18;3.05;;;15.40;99.90;;;;;;6272443;22;20064;-74
2023/07/04 01:37:02;;;;;;;9.07;3.35;;;15.40;99.90;;;;;;6244849;22;20432;-75
2023/07/04 01:39:28;;;;;;;9.38;3.10;;;15.40;99.90;;;;;;6272809;22;20409;-74
2023/07/04 01:41:53;;;;;;;11.10;3.88;;;15.40;99.90;;;;;;6271567;22;20000;-75
2023/07/04 01:44:23;;;;;;;12.45;3.35;;;15.50;99.90;;;;;;6272595;22;20000;-75
2023/07/04 01:46:49;;;;;;;7.85;3.15;;;15.50;99.90;;;;;;6273000;22;20086;-75
2023/07/04 01:49:16;;;;;;;14.35;4.05;;;15.50;99.90;;;;;;6272458;22;20027;-75
2023/07/04 01:51:42;;;;;;;11.73;3.03;;;15.50;99.90;;;;;;6272193;22;20004;-74
2023/07/04 01:54:10;;;;;;;11.77;4.10;;;15.50;99.90;;;;;;6271527;22;20326;-74
2023/07/04 01:56:38;;;;;;;12.90;3.95;;;15.60;99.90;;;;;;6272538;22;20303;-75
2023/07/04 01:59:04;;;;;;;10.25;3.65;;;15.60;99.90;;;;;;6271903;22;20000;-74
2023/07/04 02:01:29;;;;;;;14.27;3.95;;;15.50;99.90;;;;;;6272175;22;20086;-75
2023/07/04 02:03:55;;;;;;;11.80;3.22;;;15.60;99.90;;;;;;6272023;22;20081;-75
2023/07/04 02:06:20;;;;;;;8.93;3.17;;;15.60;99.90;;;;;;6271956;22;20455;-74
2023/07/04 02:08:46;;;;;;;16.10;4.15;;;15.60;99.90;;;;;;6272100;22;20014;-75
2023/07/04 02:11:12;;;;;;;14.00;3.80;;;15.50;99.90;;;;;;6271989;22;20031;-75
2023/07/04 02:13:38;;;;;;;13.93;3.17;;;15.50;99.90;;;;;;6272277;22;20489;-75
2023/07/04 02:16:04;;;;;;;8.45;3.88;;;15.50;99.90;;;;;;6271925;22;20000;-75
2023/07/04 02:18:30;;;;;;;10.68;3.40;;;15.50;99.90;;;;;;6272100;22;19999;-74
2023/07/04 02:20:55;;;;;;;11.02;2.97;;;15.50;99.90;;;;;;6271436;22;20003;-75
2023/07/04 02:23:21;;;;;;;12.25;3.83;;;15.40;99.90;;;;;;6271553;22;20366;-75
2023/07/04 02:25:48;;;;;;;13.65;3.25;;;15.40;99.90;;;;;;6272288;22;20004;-74
2023/07/04 02:28:14;;;;;;;12.93;3.00;;;15.40;99.90;;;;;;6271712;22;20010;-74
2023/07/04 02:30:40;;;;;;;10.23;3.15;;;15.40;99.90;;;;;;6245217;22;20000;-75
2023/07/04 02:33:05;;;;;;;12.80;3.63;;;15.30;99.90;;;;;;6271497;22;20072;-75
2023/07/04 02:35:31;;;;;;;12.93;3.30;;;15.30;99.90;;;;;;6244599;22;20042;-75
2023/07/04 02:37:57;;;;;;;10.50;3.00;;;15.20;99.90;;;;;;6271016;22;20003;-75
2023/07/04 02:40:23;;;;;;;8.25;3.33;;;15.20;99.90;;;;;;6271628;22;20004;-75
2023/07/04 02:42:49;;;;;;;10.50;3.42;;;15.10;99.90;;;;;;6271831;22;20071;-74
2023/07/04 02:45:15;;;;;;;18.95;4.53;;;15.10;99.90;;;;;;6271496;22;20035;-75
2023/07/04 02:47:41;;;;;;;12.27;3.13;;;15.00;99.90;;;;;;6272078;22;20085;-75
2023/07/04 02:50:07;;;;;;;10.55;3.17;;;14.90;99.90;;;;;;6271269;22;20003;-75
2023/07/04 02:52:32;;;;;;;10.80;3.45;;;14.90;99.90;;;;;;6271208;22;20002;-74
2023/07/04 02:54:58;;;;;;;9.93;3.75;;;14.90;99.90;;;;;;6271293;22;19999;-75
2023/07/04 02:57:23;;;;;;;9.52;3.35;;;14.90;99.90;;;;;;6271735;22;20000;-75
2023/07/04 02:59:49;;;;;;;13.95;3.78;;;14.80;99.90;;;;;;6244530;22;20058;-75
2023/07/04 03:02:15;;;;;;;6.25;2.80;;;14.80;99.90;;;;;;6271556;22;20069;-75
2023/07/04 03:04:40;;;;;;;9.82;3.45;;;14.80;99.90;;;;;;6244449;22;20003;-74
2023/07/04 03:07:07;;;;;;;7.97;3.08;;;14.70;99.90;;;;;;6270829;22;20003;-75
2023/07/04 03:09:32;;;;;;;9.40;3.63;;;14.70;99.90;;;;;;6271755;22;19999;-74
2023/07/04 03:11:58;;;;;;;8.20;3.08;;;14.70;99.90;;;;;;6244256;22;20003;-75
2023/07/04 03:14:24;;;;;;;11.73;3.35;;;14.70;99.90;;;;;;6271580;22;20022;-74
2023/07/04 03:16:50;;;;;;;10.38;2.88;;;14.60;99.90;;;;;;6271933;22;20006;-75
2023/07/04 03:19:16;;;;;;;5.72;2.58;;;14.60;99.90;;;;;;6271001;22;19999;-75
2023/07/04 03:21:41;;;;;;;6.35;2.47;;;14.60;99.90;;;;;;6271138;22;20030;-75
2023/07/04 03:24:07;;;;;;;7.93;2.58;;;14.60;99.90;;;;;;6271270;22;20003;-74
2023/07/04 03:26:34;;;;;;;11.57;3.13;;;14.60;99.90;;;;;;6271463;22;20022;-75
2023/07/04 03:29:01;;;;;;;6.50;2.72;;;14.60;99.90;;;;;;6271281;22;20000;-74
2023/07/04 03:31:26;;;;;;;8.05;3.45;;;14.60;99.90;;;;;;6271596;22;20130;-74
2023/07/04 03:33:52;;;;;;;10.13;2.72;;;14.60;99.90;;;;;;6271071;22;20035;-75
2023/07/04 03:36:18;;;;;;;4.63;2.58;;;14.60;99.90;;;;;;6270889;22;20011;-75
2023/07/04 03:38:44;;;;;;;11.73;3.33;;;14.50;99.90;;;;;;6271637;22;19996;-74
2023/07/04 03:41:09;;;;;;;9.50;3.42;;;14.50;99.90;;;;;;6271582;22;20037;-74
2023/07/04 03:43:35;;;;;;;13.55;3.22;;;14.50;99.90;;;;;;6274293;22;20074;-74
2023/07/04 03:46:01;;;;;;;8.20;3.15;;;14.50;99.90;;;;;;6272473;22;20000;-74
2023/07/04 03:48:26;;;;;;;9.65;3.13;;;14.50;99.90;;;;;;6272693;22;20004;-75
2023/07/04 03:50:52;;;;;;;8.35;3.20;;;14.50;99.90;;;;;;6271098;22;20434;-75
2023/07/04 03:53:17;;;;;;;8.57;3.88;;;14.50;99.90;;;;;;6272821;22;19999;-75
2023/07/04 03:55:43;;;;;;;8.52;4.30;;;14.60;99.90;;;;;;6273851;22;20095;-74
2023/07/04 03:58:09;;;;;;;8.55;2.97;;;14.60;99.90;;;;;;6273209;22;20083;-75
2023/07/04 04:00:34;;;;;;;9.30;3.25;;;14.70;99.90;;;;;;6274537;22;20031;-75
2023/07/04 04:03:00;;;;;;;8.27;3.65;;;14.70;99.90;;;;;;6274841;22;20026;-75
2023/07/04 04:05:28;;;;;;;10.40;3.88;;;14.70;99.90;;;;;;6247093;22;20008;-74
2023/07/04 04:07:53;;;;;;;11.98;3.92;;;14.70;99.90;;;;;;6273218;22;20006;-74
2023/07/04 04:10:19;;;;;;;10.32;3.80;;;14.70;99.90;;;;;;6273535;22;20071;-75
2023/07/04 04:12:45;;;;;;;8.23;3.63;;;14.80;99.90;;;;;;6273541;22;19995;-75
2023/07/04 04:15:11;;;;;;;11.25;3.50;;;14.80;99.90;;;;;;6245874;22;20099;-75
2023/07/04 04:17:37;;;;;;;9.98;3.35;;;14.80;99.90;;;;;;6273269;22;20284;-75
2023/07/04 04:20:06;;;;;;;14.95;3.97;;;14.80;99.90;;;;;;6272565;22;20007;-75
2023/07/04 04:22:34;;;;;;;14.63;4.32;;;14.90;99.90;;;;;;6273288;22;20444;-74
2023/07/04 04:25:00;;;;;;;10.93;4.22;;;14.90;99.90;;;;;;6272842;22;20026;-74
2023/07/04 04:27:27;;;;;;;11.63;4.07;;;14.90;99.90;;;;;;6246079;22;20429;-75
2023/07/04 04:29:53;;;;;;;12.68;4.72;;;14.90;99.90;;;;;;6246270;22;20077;-75
2023/07/04 04:32:22;;;;;;;12.82;4.82;;;15.00;99.90;;;;;;6272945;22;20421;-75
2023/07/04 04:34:48;;;;;;;10.45;4.45;;;15.00;99.90;;;;;;6272854;22;20027;-75
2023/07/04 04:37:13;;;;;;;16.33;4.90;;;15.00;99.90;;;;;;6272951;22;20012;-75
2023/07/04 04:39:39;;;;;;;16.30;5.25;;;15.00;99.90;;;;;;6273295;22;20618;-75
2023/07/04 04:42:05;;;;;;;14.70;5.35;;;15.00;99.90;;;;;;6272730;22;19996;-75
2023/07/04 04:44:30;;;;;;;15.73;6.65;;;15.00;99.90;;;;;;6273245;22;20018;-75
2023/07/04 04:46:56;;;;;;;13.80;6.25;;;15.10;99.90;;;;;;6272814;22;20004;-75
2023/07/04 04:49:22;;;;;;;15.90;6.00;;;15.10;99.90;;;;;;6272445;22;19999;-75
2023/07/04 04:51:51;;;;;;;18.13;6.40;;;15.10;99.90;;;;;;6273312;22;20053;-75
2023/07/04 04:54:17;;;;;;;20.58;6.63;;;15.20;99.90;;;;;;6245308;22;20003;-75
2023/07/04 04:56:44;;;;;;;19.00;6.72;;;15.30;99.90;;;;;;6245870;22;20015;-75
2023/07/04 04:59:11;;;;;;;14.35;7.00;;;15.40;99.90;;;;;;6272609;22;19995;-75
2023/07/04 05:01:37;;;;;;;17.95;7.35;;;15.50;99.90;;;;;;6272721;22;20035;-75
2023/07/04 05:04:03;;;;;;;14.82;6.60;;;15.50;99.90;;;;;;6244480;22;20011;-75
2023/07/04 05:06:30;;;;;;;26.90;7.05;;;15.60;99.90;;;;;;6245657;22;20031;-74
2023/07/04 05:08:56;;;;;;;23.23;7.20;;;15.60;99.90;;;;;;6272471;22;20030;-74
2023/07/04 05:11:22;;;;;;;20.02;7.43;;;15.60;99.90;;;;;;6272551;22;20330;-74
2023/07/04 05:13:50;;;;;;;24.38;7.47;;;15.70;99.90;;;;;;6245561;22;20025;-75
2023/07/04 05:16:18;;;;;;;22.20;8.50;;;15.70;99.90;;;;;;6272245;22;20049;-75
2023/07/04 05:18:45;;;;;;;20.30;7.30;;;15.70;99.90;;;;;;6272395;22;20003;-75
2023/07/04 05:21:16;;;;;;;17.25;7.22;;;15.80;99.90;;;;;;6272618;22;20057;-75
2023/07/04 05:23:44;;;;;;;21.92;7.03;;;15.80;99.90;;;;;;6272673;22;20004;-75
2023/07/04 05:26:12;;;;;;;21.90;7.03;;;15.80;99.90;;;;;;6272446;22;20500;-74
2023/07/04 05:28:38;;;;;;;24.02;7.28;;;15.80;99.90;;;;;;6272433;22;19999;-74
2023/07/04 05:31:07;;;;;;;20.15;7.35;;;15.90;99.90;;;;;;6272432;22;20025;-74
2023/07/04 05:33:33;;;;;;;21.70;8.00;;;16.00;99.90;;;;;;6271620;22;20091;-75
2023/07/04 05:36:07;;;;;;;23.75;8.23;;;16.00;99.90;;;;;;6272336;22;20031;-75
2023/07/04 05:38:33;;;;;;;17.98;7.38;;;16.10;99.90;;;;;;6272710;22;20011;-75
2023/07/04 05:40:59;;;;;;;21.70;8.00;;;16.20;99.90;;;;;;6272272;22;20074;-75
2023/07/04 05:43:24;;;;;;;25.50;8.60;;;16.20;99.90;;;;;;6272276;22;20364;-74
2023/07/04 05:45:52;;;;;;;22.50;7.95;;;16.20;99.90;;;;;;6272650;22;20429;-75
2023/07/04 05:48:17;;;;;;;25.80;8.13;;;16.30;99.90;;;;;;6271963;22;20099;-74
2023/07/04 05:51:11;;;;;;;22.38;8.85;;;16.30;99.90;;;;;;6272631;22;20158;-75
2023/07/04 05:53:38;;;;;;;20.05;7.43;;;16.30;99.90;;;;;;6268215;22;20015;-75
2023/07/04 05:56:16;;;;;;;21.05;8.57;;;16.30;99.90;;;;;;6272061;22;19996;-75
2023/07/04 05:58:46;;;;;;;25.63;7.80;;;16.40;99.90;;;;;;6272312;22;20327;-75
2023/07/04 06:01:21;;;;;;;18.75;7.57;;;16.40;99.90;;;;;;6271360;22;20019;-75
2023/07/04 06:03:47;;;;;;;21.45;8.65;;;16.40;99.90;;;;;;6272424;22;20004;-74
2023/07/04 06:06:26;;;;;;;23.35;9.10;;;16.40;99.90;;;;;;6271899;22;20011;-74
2023/07/04 06:08:53;;;;;;;21.38;8.30;;;16.40;99.90;;;;;;6272436;22;20004;-75
2023/07/04 06:11:20;;;;;;;24.60;7.50;;;16.40;99.90;;;;;;6272149;22;20000;-75
2023/07/04 06:13:45;;;;;;;25.75;9.27;;;16.50;99.90;;;;;;6272050;22;20042;-74
2023/07/04 06:16:11;;;;;;;24.95;10.15;;;16.50;99.90;;;;;;6271098;22;19999;-75
2023/07/04 06:18:37;;;;;;;22.70;8.23;;;16.60;99.90;;;;;;6272217;22;20004;-74
2023/07/04 06:21:11;;;;;;;22.02;7.78;;;16.60;99.90;;;;;;6271588;22;20125;-74
2023/07/04 06:23:38;;;;;;;15.65;7.10;;;16.70;99.90;;;;;;6272217;22;20307;-75
2023/07/04 06:26:05;;;;;;;22.98;8.88;;;16.70;99.90;;;;;;6271735;22;20077;-75
2023/07/04 06:28:31;;;;;;;23.92;8.90;;;16.80;99.90;;;;;;6271573;22;20010;-75
2023/07/04 06:30:57;;;;;;;21.17;7.85;;;16.90;99.90;;;;;;6271110;22;20034;-75
2023/07/04 06:33:23;;;;;;;20.10;6.75;;;17.10;99.90;;;;;;6270946;22;20019;-74
2023/07/04 06:35:48;;;;;;;24.80;8.35;;;17.20;99.90;;;;;;6272159;22;20425;-75
2023/07/04 06:38:14;;;;;;;22.35;8.40;;;17.30;99.90;;;;;;6271944;22;20031;-74
2023/07/04 06:40:41;;;;;;;20.95;8.27;;;17.30;99.90;;;;;;6271973;22;20061;-74
2023/07/04 06:43:07;;;;;;;18.85;7.22;;;17.40;99.90;;;;;;6271748;22;19999;-75
2023/07/04 06:45:34;;;;;;;26.33;8.00;;;17.50;99.90;;;;;;6271280;22;20095;-75
2023/07/04 06:47:59;;;;;;;24.35;7.45;;;17.50;99.90;;;;;;6244337;22;20307;-75
2023/07/04 06:50:26;;;;;;;17.15;6.30;;;17.60;99.90;;;;;;6271898;22;20003;-74
2023/07/04 06:52:52;;;;;;;23.60;8.00;;;17.60;99.90;;;;;;6271895;22;20069;-75
2023/07/04 06:55:17;;;;;;;22.48;8.00;;;17.60;99.90;;;;;;6271598;22;19991;-74
2023/07/04 06:57:43;;;;;;;20.40;6.90;;;17.70;99.90;;;;;;6271897;22;20004;-75
2023/07/04 07:00:10;;;;;;;20.05;7.18;;;17.80;99.90;;;;;;6270931;22;20000;-75
2023/07/04 07:02:35;;;;;;;17.33;7.57;;;17.80;99.90;;;;;;6271954;22;20431;-75
2023/07/04 07:05:01;;;;;;;19.17;6.60;;;17.90;99.90;;;;;;6271424;22;20000;-74
2023/07/04 07:07:27;;;;;;;18.92;6.80;;;18.00;99.90;;;;;;6271846;22;19999;-75
2023/07/04 07:09:53;;;;;;;19.30;6.38;;;17.90;99.90;;;;;;6244462;22;20015;-75
2023/07/04 07:12:18;;;;;;;28.05;8.32;;;18.10;99.90;;;;;;6244354;22;20015;-75
2023/07/04 07:14:46;;;;;;;17.73;7.05;;;18.20;99.90;;;;;;6272139;22;19996;-75
2023/07/04 07:17:12;;;;;;;24.42;6.72;;;18.30;99.90;;;;;;6273368;22;19996;-74
2023/07/04 07:19:38;;;;;;;19.08;7.22;;;18.40;99.90;;;;;;6273409;22;20053;-74
2023/07/04 07:22:03;;;;;;;18.98;7.13;;;18.50;99.90;;;;;;6272432;22;20374;-74
2023/07/04 07:24:29;;;;;;;22.10;6.32;;;18.70;99.90;;;;;;6271492;22;20011;-75
2023/07/04 07:26:58;;;;;;;21.40;6.82;;;18.90;99.90;;;;;;6271486;22;19999;-74
2023/07/04 07:29:26;;;;;;;19.30;5.40;;;19.20;99.90;;;;;;6271274;22;20382;-75
2023/07/04 07:31:51;;;;;;;15.90;5.88;;;19.30;99.90;;;;;;6244866;22;20345;-74
2023/07/04 07:34:18;;;;;;;14.75;4.97;;;19.30;99.90;;;;;;6272897;22;20015;-75
2023/07/04 07:36:45;;;;;;;15.48;6.00;;;19.20;99.90;;;;;;6273637;22;20306;-75
2023/07/04 07:39:13;;;;;;;13.52;4.60;;;19.20;99.90;;;;;;6271331;22;20390;-74
2023/07/04 07:41:44;;;;;;;17.08;5.65;;;19.10;99.90;;;;;;6271528;22;20075;-75
2023/07/04 07:44:11;;;;;;;18.38;5.05;;;19.10;99.90;;;;;;6270831;22;20011;-75
2023/07/04 07:46:36;;;;;;;16.38;4.72;;;19.20;99.90;;;;;;6271763;22;20000;-75
2023/07/04 07:49:02;;;;;;;19.27;5.13;;;19.40;99.90;;;;;;6271265;22;20000;-75
2023/07/04 07:51:28;;;;;;;17.25;4.68;;;19.50;99.90;;;;;;6244262;22;20008;-75
2023/07/04 07:53:56;;;;;;;16.95;4.40;;;19.70;99.90;;;;;;6271226;22;20035;-75
2023/07/04 07:56:23;;;;;;;11.80;4.00;;;19.70;99.30;;;;;;6271402;22;20070;-75
2023/07/04 07:58:50;;;;;;;12.43;3.38;;;19.70;98.90;;;;;;6271141;22;19996;-75
2023/07/04 08:01:18;;;;;;;12.88;4.00;;;19.60;98.70;;;;;;6270797;22;20016;-75
2023/07/04 08:03:44;;;;;;;15.20;4.25;;;19.60;98.50;;;;;;6244504;22;20007;-75
2023/07/04 08:06:23;;;;;;;12.60;4.00;;;19.70;98.70;;;;;;6271150;22;20469;-75
2023/07/04 08:08:50;;;;;;;11.40;3.83;;;19.70;98.30;;;;;;6271608;22;19996;-74
2023/07/04 08:11:16;;;;;;;14.63;3.20;;;19.80;97.90;;;;;;6270519;22;20023;-74
2023/07/04 08:13:42;;;;;;;13.60;3.88;;;19.80;97.50;;;;;;6271550;22;20000;-74
2023/07/04 08:16:08;;;;;;;7.78;2.47;;;19.80;97.40;;;;;;6271114;22;20071;-75
2023/07/04 08:18:34;;;;;;;15.65;3.40;;;19.80;96.90;;;;;;6271615;22;20388;-74
2023/07/04 08:21:01;;;;;;;11.45;2.78;;;19.70;96.60;;;;;;6271111;22;20057;-75
2023/07/04 08:23:27;;;;;;;11.93;4.38;;;19.70;96.60;;;;;;6244198;22;20089;-75
2023/07/04 08:25:54;;;;;;;16.10;3.65;;;19.70;96.30;;;;;;6270617;22;20015;-75
2023/07/04 08:28:25;;;;;;;13.25;3.00;;;19.70;96.00;;;;;;6271380;22;20011;-75
2023/07/04 08:30:51;;;;;;;9.60;2.92;;;19.70;95.80;;;;;;6271443;22;20000;-75
2023/07/04 08:33:18;;;;;;;9.50;2.20;;;19.70;95.50;;;;;;6270918;22;20022;-75
2023/07/04 08:35:59;;;;;;;10.32;2.65;;;19.70;95.60;;;;;;6271634;22;20006;-75
2023/07/04 08:38:25;;;;;;;14.32;3.40;;;19.60;95.50;;;;;;6272126;22;20118;-75
2023/07/04 08:40:51;;;;;;;10.85;3.85;;;19.60;95.20;;;;;;6272788;22;20000;-75
2023/07/04 08:43:26;;;;;;;13.82;3.67;;;19.60;95.00;;;;;;6272623;22;20367;-75
2023/07/04 08:45:52;;;;;;;13.88;3.20;;;19.50;95.00;;;;;;6246077;22;20497;-75
2023/07/04 08:48:18;;;;;;;9.73;3.67;;;19.60;95.20;;;;;;6245544;22;20082;-75
2023/07/04 08:50:46;;;;;;;10.02;2.70;;;19.70;95.20;;;;;;6273356;22;20098;-75
2023/07/04 08:53:19;;;;;;;13.35;3.60;;;19.70;95.10;;;;;;6245399;22;20038;-75
2023/07/04 08:55:50;;;;;;;15.65;3.78;;;19.80;94.70;;;;;;6272856;22;20025;-75
2023/07/04 08:58:19;;;;;;;12.15;3.15;;;19.80;94.40;;;;;;6245308;22;20003;-75
2023/07/04 09:00:45;;;;;;;14.60;2.78;;;19.80;94.50;;;;;;6273138;22;20439;-75
2023/07/04 09:03:32;;;;;;;6.50;2.20;;;20.00;94.50;;;;;;6272597;22;20020;-74
2023/07/04 09:06:28;;;;;;;11.52;2.90;;;20.10;94.30;;;;;;6272585;22;20086;-75
2023/07/04 09:09:02;;;;;;;12.15;2.75;;;20.30;94.00;;;;;;6272581;22;20074;-75
2023/07/04 09:11:29;;;;;;;12.13;2.78;;;20.30;93.60;;;;;;6272291;22;19995;-75
2023/07/04 09:14:10;;;;;;;8.07;2.53;;;20.50;93.30;;;;;;6272373;22;20317;-75
2023/07/04 09:16:43;;;;;;;12.65;3.30;;;20.60;92.60;;;;;;6272967;22;20466;-74
2023/07/04 09:19:12;;;;;;;5.75;2.08;;;20.70;92.70;;;;;;6245105;22;20439;-75
2023/07/04 09:21:38;;;;;;;12.73;2.55;;;20.80;92.70;;;;;;6272869;22;20011;-75
2023/07/04 09:24:04;;;;;;;11.82;2.88;;;20.70;92.50;;;;;;6271348;22;20007;-75
2023/07/04 09:26:58;;;;;;;7.05;2.13;;;20.70;92.30;;;;;;6271061;22;20079;-75
2023/07/04 09:29:24;;;;;;;9.15;3.40;;;20.70;92.30;;;;;;6265453;22;20015;-75
2023/07/04 09:32:00;;;;;;;14.05;3.22;;;20.70;91.90;;;;;;6272317;22;20004;-75
2023/07/04 09:34:42;;;;;;;8.82;2.38;;;20.80;91.80;;;;;;6272704;22;20000;-75
2023/07/04 09:37:14;;;;;;;7.20;1.88;;;21.00;92.00;;;;;;6272532;22;20011;-75
2023/07/04 09:39:54;;;;;;;9.60;2.63;;;21.20;91.50;;;;;;6272377;22;20007;-75
2023/07/04 09:42:25;;;;;;;7.22;1.42;;;21.20;91.30;;;;;;6272620;22;20068;-75
2023/07/04 09:44:54;;;;;;;8.15;2.33;;;21.30;91.40;;;;;;6273032;22;20072;-75
2023/07/04 09:47:28;;;;;;;7.10;1.65;;;21.40;91.40;;;;;;6272957;22;20079;-75
2023/07/04 09:50:15;;;;;;;8.40;2.15;;;21.60;90.60;;;;;;6272184;22;20519;-75
2023/07/04 09:52:42;;;;;;;7.47;2.13;;;21.60;90.50;;;;;;6272115;22;20006;-76
2023/07/04 09:55:25;;;;;;;7.93;2.30;;;21.70;89.70;;;;;;6272070;22;20011;-75
2023/07/04 09:57:50;;;;;;;11.90;3.25;;;21.80;88.80;;;;;;6272489;22;20006;-75
2023/07/04 10:00:19;;;;;;;9.25;2.30;;;21.80;88.60;;;;;;6271802;22;20027;-76
2023/07/04 10:02:46;;;;;;;8.38;2.50;;;21.80;87.80;;;;;;6272268;22;20006;-75
2023/07/04 10:05:29;;;;;;;9.70;3.05;;;21.70;87.40;;;;;;6244716;22;20012;-75
2023/07/04 10:08:07;;;;;;;7.07;1.48;;;21.60;86.90;;;;;;6271452;22;20075;-75
2023/07/04 10:11:00;;;;;;;6.45;1.45;;;21.50;86.30;;;;;;6272328;22;20006;-75
2023/07/04 10:13:35;;;;;;;7.00;2.17;;;21.50;86.10;;;;;;6272213;22;20065;-75
2023/07/04 10:16:01;;;;;;;6.55;2.15;;;21.60;85.20;;;;;;6272135;22;20010;-75
2023/07/04 10:18:26;;;;;;;10.10;2.25;;;21.70;84.50;;;;;;6272098;22;19996;-75
2023/07/04 10:20:55;;;;;;;11.05;2.60;;;21.70;84.30;;;;;;6272338;22;20011;-75
2023/07/04 10:23:22;;;;;;;6.45;1.77;;;21.60;83.80;;;;;;6271618;22;20102;-75
2023/07/04 10:25:50;;;;;;;8.50;1.90;;;21.50;84.50;;;;;;6272420;22;20352;-75
2023/07/04 10:28:17;;;;;;;7.78;2.22;;;21.50;85.00;;;;;;6271580;22;20038;-75
2023/07/04 10:30:50;;;;;;;9.10;2.00;;;21.50;84.80;;;;;;6272430;22;20030;-75
2023/07/04 10:33:24;;;;;;;4.95;1.92;;;21.50;84.20;;;;;;6271723;22;20004;-76
2023/07/04 10:35:51;;;;;;;8.93;2.00;;;21.50;85.40;;;;;;6272252;22;20000;-75
2023/07/04 10:38:32;;;;;;;7.53;1.90;;;21.50;84.30;;;;;;6271122;22;20077;-75
2023/07/04 10:40:59;;;;;;;8.35;1.80;;;21.60;83.10;;;;;;6272031;22;20023;-75
2023/07/04 10:43:30;;;;;;;8.38;1.80;;;21.60;82.90;;;;;;6272336;22;20380;-76
2023/07/04 10:45:58;;;;;;;8.75;1.92;;;21.70;82.70;;;;;;6244745;22;20368;-76
2023/07/04 10:48:29;;;;;;;7.38;1.35;;;21.70;82.90;;;;;;6273295;22;20078;-79
2023/07/04 10:51:19;;;;;;;4.45;1.23;;;21.80;82.30;;;;;;6272002;22;20030;-76
2023/07/04 10:53:44;;;;;;;9.70;2.08;;;21.90;81.40;;;;;;6245725;22;20473;-76
2023/07/04 10:56:24;;;;;;;5.63;1.75;;;22.00;80.30;;;;;;6244375;22;20035;-76
2023/07/04 10:58:54;;;;;;;6.45;1.85;;;22.20;79.60;;;;;;6272202;22;20004;-76
2023/07/04 11:01:36;;;;;;;8.88;2.30;;;22.30;79.60;;;;;;6271475;22;20007;-76
2023/07/04 11:04:21;;;;;;;6.40;2.15;;;22.40;79.80;;;;;;6272172;22;20011;-76
2023/07/04 11:07:09;;;;;;;7.80;1.90;;;22.40;79.20;;;;;;6272356;22;20000;-76
2023/07/04 11:09:38;;;;;;;8.80;2.10;;;22.40;79.20;;;;;;6272773;22;20004;-76
2023/07/04 11:12:08;;;;;;;7.18;1.90;;;22.30;79.00;;;;;;6271909;22;20000;-76
2023/07/04 11:14:37;;;;;;;9.25;1.77;;;22.40;79.30;;;;;;6271599;22;20012;-76
2023/07/04 11:17:04;;;;;;;6.25;1.73;;;22.50;79.30;;;;;;6272025;22;20090;-76
2023/07/04 11:19:34;;;;;;;7.28;2.08;;;22.70;78.30;;;;;;6244723;22;20105;-76
2023/07/04 11:22:05;;;;;;;5.90;1.75;;;22.80;77.70;;;;;;6244608;22;20011;-76
2023/07/04 11:24:44;;;;;;;3.83;1.42;;;22.90;76.80;;;;;;6244609;22;20011;-76
2023/07/04 11:27:24;;;;;;;7.57;1.58;;;22.90;76.20;;;;;;6271607;22;20424;-76
2023/07/04 11:29:56;;;;;;;5.65;2.40;;;22.90;75.60;;;;;;6272047;22;20000;-76
2023/07/04 11:32:37;;;;;;;6.38;1.60;;;22.90;75.70;;;;;;6271953;22;20000;-77
2023/07/04 11:35:13;;;;;;;6.80;1.65;;;22.90;75.50;;;;;;6270993;22;20376;-76
2023/07/04 11:38:02;;;;;;;7.85;1.90;;;22.90;74.90;;;;;;6272125;22;20004;-76
2023/07/04 11:40:31;;;;;;;4.97;1.35;;;22.90;75.60;;;;;;6272036;22;20426;-77
2023/07/04 11:43:03;;;;;;;7.75;1.95;;;22.90;75.10;;;;;;6271360;22;20022;-76
2023/07/04 11:45:31;;;;;;;6.47;2.10;;;23.00;74.70;;;;;;6244546;22;20010;-76
2023/07/04 11:48:04;;;;;;;5.88;1.42;;;23.00;75.40;;;;;;6271669;22;20078;-77
2023/07/04 11:50:33;;;;;;;6.20;2.15;;;23.00;74.70;;;;;;6271383;22;19995;-76
2023/07/04 11:53:02;;;;;;;5.25;1.73;;;22.90;74.20;;;;;;6271519;22;20333;-76
2023/07/04 11:55:33;;;;;;;5.18;1.70;;;22.90;74.70;;;;;;6272350;22;20004;-76
2023/07/04 11:58:00;;;;;;;8.13;2.50;;;22.90;74.50;;;;;;6271608;22;20000;-76
2023/07/04 12:00:32;;;;;;;9.13;1.88;;;23.00;74.10;;;;;;6271733;22;20417;-76
2023/07/04 12:03:17;;;;;;;8.98;1.90;;;23.00;73.80;;;;;;6271298;22;20045;-76
2023/07/04 12:05:56;;;;;;;6.32;2.03;;;23.10;73.70;;;;;;6271810;22;20027;-76
2023/07/04 12:08:34;;;;;;;6.13;1.67;;;23.20;73.50;;;;;;6271980;22;20354;-76
2023/07/04 12:11:03;;;;;;;9.18;2.28;;;23.30;73.80;;;;;;6271247;22;19999;-76
2023/07/04 12:13:32;;;;;;;6.13;1.80;;;23.60;73.60;;;;;;6272681;22;20000;-78
2023/07/04 12:15:58;;;;;;;6.80;1.80;;;23.70;73.80;;;;;;6273260;22;20007;-76
2023/07/04 12:18:28;;;;;;;10.00;2.35;;;23.80;73.80;;;;;;6273147;22;20004;-75
2023/07/04 12:20:57;;;;;;;9.07;2.17;;;23.80;75.80;;;;;;6273264;22;19996;-76
2023/07/04 12:23:23;;;;;;;5.13;1.48;;;23.80;75.90;;;;;;6273585;22;20003;-76
2023/07/04 12:25:54;;;;;;;6.18;1.95;;;23.70;75.60;;;;;;6273411;22;20384;-76
2023/07/04 12:28:25;;;;;;;4.35;1.58;;;23.70;74.90;;;;;;6273609;22;20075;-75
2023/07/04 12:31:03;;;;;;;7.15;1.92;;;23.70;73.10;;;;;;6273560;22;20041;-76
2023/07/04 12:33:30;;;;;;;7.00;1.33;;;23.50;72.70;;;;;;6272889;22;20147;-76
2023/07/04 12:36:05;;;;;;;5.72;2.03;;;23.50;72.80;;;;;;6273136;22;20429;-76
2023/07/04 12:38:32;;;;;;;6.15;1.70;;;23.40;72.80;;;;;;6273408;22;20003;-76
2023/07/04 12:40:59;;;;;;;7.47;1.52;;;23.30;73.10;;;;;;6272965;22;19996;-76
2023/07/04 12:43:32;;;;;;;8.50;1.85;;;23.40;73.50;;;;;;6273006;22;20012;-76
2023/07/04 12:46:12;;;;;;;5.03;1.75;;;23.50;73.50;;;;;;6245601;22;20006;-76
2023/07/04 12:48:38;;;;;;;4.85;1.90;;;23.60;73.40;;;;;;6272684;22;20015;-76
2023/07/04 12:51:09;;;;;;;4.57;1.17;;;23.80;72.80;;;;;;6272981;22;20007;-76